Private Wetterstation Wechselburg
Wetterdaten: Montag, 22.03.2021
Datum Zeit Temp. +2m Bodentemp. Temp.+5cm Temp. Wind Windchill X Diff Temp. Feuchte +2m Feuchte +5cm Luftdruck Regen Wind Richtung Richtung Sonnenschein Taupunkt Windchill Windben
22.03.2021 00:00 2,4 C 4,9 C 1,3 C 1,8 C 0,7 C 0,0 C 82 % 88 % 1020,0 hPa 0,0 l/m 0,2 km/h (0 Bft) NW 315 0 min -0,4 C 0,7 C 0,0 km/h (0 Bft)
22.03.2021 00:05 2,3 C 4,9 C 1,3 C 1,7 C 0,5 C 0,0 C 82 % 88 % 1020,0 hPa 0,0 l/m 0,2 km/h (0 Bft) SW 225 0 min -0,4 C 0,5 C 0,0 km/h (0 Bft)
22.03.2021 00:10 2,1 C 4,9 C 1,1 C 1,5 C 0,2 C 0,0 C 82 % 88 % 1019,9 hPa 0,0 l/m 0,0 km/h (0 Bft) W-SW 247 0 min -0,6 C 0,2 C 0,0 km/h (0 Bft)
22.03.2021 00:15 2,0 C 5,0 C 1,0 C 1,4 C 0,1 C 0,0 C 82 % 88 % 1019,9 hPa 0,0 l/m 0,0 km/h (0 Bft) SW 225 0 min -0,7 C 0,1 C 0,0 km/h (0 Bft)
22.03.2021 00:20 1,9 C 5,0 C 0,8 C 1,3 C 0,1 C 0,0 C 82 % 88 % 1019,9 hPa 0,0 l/m 0,0 km/h (0 Bft) N-NO 22 0 min -0,8 C 0,1 C 0,0 km/h (0 Bft)
22.03.2021 00:25 1,9 C 5,0 C 0,6 C 1,2 C -0,1 C 0,0 C 82 % 88 % 1019,9 hPa 0,0 l/m 0,0 km/h (0 Bft) N-NO 22 0 min -0,8 C -0,1 C 0,0 km/h (0 Bft)
22.03.2021 00:30 1,6 C 5,0 C 0,3 C 0,9 C -0,4 C 0,0 C 82 % 89 % 1020,1 hPa 0,0 l/m 0,0 km/h (0 Bft) N-NO 22 0 min -1,1 C -0,4 C 0,0 km/h (0 Bft)
22.03.2021 00:35 1,6 C 5,0 C 0,2 C 0,9 C -0,6 C 0,0 C 83 % 89 % 1020,1 hPa 0,0 l/m 0,0 km/h (0 Bft) N-NO 22 0 min -1,0 C -0,6 C 0,0 km/h (0 Bft)
22.03.2021 00:40 1,4 C 5,0 C 0,1 C 0,7 C -0,8 C 0,0 C 83 % 89 % 1020,1 hPa 0,0 l/m 0,0 km/h (0 Bft) N-NO 22 0 min -1,2 C -0,8 C 0,0 km/h (0 Bft)
22.03.2021 00:45 1,3 C 5,0 C 0,0 C 0,6 C -0,8 C 0,0 C 83 % 89 % 1020,1 hPa 0,0 l/m 0,0 km/h (0 Bft) NO 45 0 min -1,3 C -0,8 C 0,0 km/h (0 Bft)
22.03.2021 00:50 1,2 C 5,1 C -0,1 C 0,5 C -0,8 C 0,0 C 83 % 89 % 1020,4 hPa 0,0 l/m 0,0 km/h (0 Bft) NO 45 0 min -1,4 C -0,8 C 0,0 km/h (0 Bft)
22.03.2021 00:55 1,1 C 5,0 C -0,3 C 0,4 C -0,9 C 0,0 C 83 % 89 % 1020,4 hPa 0,0 l/m 0,0 km/h (0 Bft) NO 45 0 min -1,5 C -0,9 C 0,0 km/h (0 Bft)
22.03.2021 01:00 1,1 C 5,1 C -0,3 C 0,4 C -1,0 C 0,0 C 83 % 90 % 1020,4 hPa 0,0 l/m 0,0 km/h (0 Bft) N-NO 22 0 min -1,5 C -1,0 C 0,0 km/h (0 Bft)
22.03.2021 01:05 0,9 C 5,0 C -0,4 C 0,3 C -1,0 C 0,0 C 83 % 90 % 1020,4 hPa 0,0 l/m 0,0 km/h (0 Bft) N-NO 22 0 min -1,7 C -1,0 C 0,0 km/h (0 Bft)
22.03.2021 01:10 0,9 C 5,1 C -0,4 C 0,3 C -1,0 C 0,0 C 84 % 90 % 1020,4 hPa 0,0 l/m 0,0 km/h (0 Bft) N-NO 22 0 min -1,5 C -1,0 C 0,0 km/h (0 Bft)
22.03.2021 01:15 0,9 C 5,0 C -0,3 C 0,2 C -1,1 C 0,0 C 84 % 90 % 1020,4 hPa 0,0 l/m 0,0 km/h (0 Bft) N-NO 22 0 min -1,5 C -1,1 C 0,0 km/h (0 Bft)
22.03.2021 01:20 0,8 C 5,1 C -0,5 C 0,2 C -1,1 C 0,0 C 84 % 90 % 1020,4 hPa 0,0 l/m 0,0 km/h (0 Bft) N-NO 22 0 min -1,6 C -1,1 C 0,0 km/h (0 Bft)
22.03.2021 01:25 0,8 C 5,1 C -0,6 C 0,1 C -1,2 C 0,0 C 84 % 90 % 1020,4 hPa 0,0 l/m 0,0 km/h (0 Bft) NO 45 0 min -1,6 C -1,2 C 0,0 km/h (0 Bft)
22.03.2021 01:30 0,7 C 5,1 C -0,6 C 0,1 C -1,1 C 0,0 C 84 % 90 % 1020,6 hPa 0,0 l/m 0,0 km/h (0 Bft) NW 315 0 min -1,7 C -1,1 C 0,0 km/h (0 Bft)
22.03.2021 01:35 0,7 C 5,1 C -0,6 C 0,1 C -1,1 C 0,0 C 85 % 90 % 1020,6 hPa 0,0 l/m 0,0 km/h (0 Bft) W-SW 247 0 min -1,5 C -1,1 C 0,0 km/h (0 Bft)
22.03.2021 01:40 0,7 C 5,0 C -0,7 C 0,1 C -1,2 C 0,0 C 85 % 90 % 1020,6 hPa 0,0 l/m 0,0 km/h (0 Bft) SW 225 0 min -1,5 C -1,2 C 0,0 km/h (0 Bft)
22.03.2021 01:45 0,5 C 5,1 C -0,8 C -0,1 C -1,3 C 0,0 C 85 % 90 % 1020,6 hPa 0,0 l/m 0,0 km/h (0 Bft) SW 225 0 min -1,7 C -1,3 C 0,0 km/h (0 Bft)
22.03.2021 01:50 0,4 C 5,1 C -0,9 C -0,2 C -1,4 C 0,0 C 85 % 90 % 1020,6 hPa 0,0 l/m 0,0 km/h (0 Bft) SW 225 0 min -1,8 C -1,4 C 0,0 km/h (0 Bft)
22.03.2021 01:55 0,4 C 5,1 C -0,9 C -0,2 C -1,4 C 0,0 C 85 % 90 % 1020,6 hPa 0,0 l/m 0,0 km/h (0 Bft) SW 225 0 min -1,8 C -1,4 C 0,0 km/h (0 Bft)
22.03.2021 02:00 0,3 C 5,2 C -1,0 C -0,3 C -1,4 C 0,0 C 85 % 91 % 1020,6 hPa 0,0 l/m 0,0 km/h (0 Bft) SW 225 0 min -1,9 C -1,4 C 0,0 km/h (0 Bft)
22.03.2021 02:05 0,2 C 5,2 C -1,1 C -0,3 C -1,4 C 0,0 C 85 % 91 % 1020,6 hPa 0,0 l/m 0,0 km/h (0 Bft) SW 225 0 min -2,0 C -1,4 C 0,0 km/h (0 Bft)
22.03.2021 02:10 0,3 C 5,2 C -1,1 C -0,2 C -1,3 C 0,0 C 85 % 91 % 1020,5 hPa 0,0 l/m 0,0 km/h (0 Bft) SW 225 0 min -1,9 C -1,3 C 0,0 km/h (0 Bft)
22.03.2021 02:15 0,3 C 5,2 C -1,0 C -0,2 C -1,2 C 0,0 C 85 % 91 % 1020,5 hPa 0,0 l/m 0,0 km/h (0 Bft) SW 225 0 min -1,9 C -1,2 C 0,0 km/h (0 Bft)
22.03.2021 02:20 0,3 C 5,2 C -0,9 C -0,1 C -1,0 C 0,0 C 86 % 91 % 1020,5 hPa 0,0 l/m 0,0 km/h (0 Bft) SW 225 0 min -1,8 C -1,0 C 0,0 km/h (0 Bft)
22.03.2021 02:25 0,3 C 5,2 C -0,7 C -0,1 C -0,9 C 0,0 C 86 % 91 % 1020,5 hPa 0,0 l/m 0,0 km/h (0 Bft) SW 225 0 min -1,8 C -0,9 C 0,0 km/h (0 Bft)
22.03.2021 02:30 0,3 C 5,2 C -0,5 C -0,1 C -0,8 C 0,0 C 86 % 91 % 1020,7 hPa 0,0 l/m 0,0 km/h (0 Bft) SW 225 0 min -1,8 C -0,8 C 0,0 km/h (0 Bft)
22.03.2021 02:35 0,3 C 5,2 C -0,5 C 0,0 C -0,6 C 0,0 C 86 % 91 % 1020,7 hPa 0,0 l/m 0,0 km/h (0 Bft) SW 225 0 min -1,8 C -0,6 C 0,0 km/h (0 Bft)
22.03.2021 02:40 0,2 C 5,2 C -0,5 C 0,0 C -0,5 C 0,0 C 86 % 91 % 1020,7 hPa 0,0 l/m 0,0 km/h (0 Bft) SW 225 0 min -1,9 C -0,5 C 0,0 km/h (0 Bft)
22.03.2021 02:45 0,3 C 5,2 C -0,5 C 0,0 C -0,5 C 0,0 C 86 % 91 % 1020,7 hPa 0,0 l/m 0,0 km/h (0 Bft) SW 225 0 min -1,8 C -0,5 C 0,0 km/h (0 Bft)
22.03.2021 02:50 0,3 C 5,1 C -0,4 C 0,1 C -0,4 C 0,0 C 86 % 91 % 1020,5 hPa 0,0 l/m 0,0 km/h (0 Bft) SW 225 0 min -1,8 C -0,4 C 0,0 km/h (0 Bft)
22.03.2021 02:55 0,4 C 5,1 C -0,4 C 0,2 C -0,3 C 0,0 C 87 % 91 % 1020,5 hPa 0,0 l/m 0,0 km/h (0 Bft) SW 225 0 min -1,5 C -0,3 C 0,0 km/h (0 Bft)
22.03.2021 03:00 0,4 C 5,1 C -0,3 C 0,1 C -0,4 C 0,0 C 87 % 92 % 1020,5 hPa 0,0 l/m 0,0 km/h (0 Bft) SW 225 0 min -1,5 C -0,4 C 0,0 km/h (0 Bft)
22.03.2021 03:05 0,4 C 5,1 C -0,3 C 0,1 C -0,4 C 0,0 C 87 % 92 % 1020,5 hPa 0,0 l/m 0,0 km/h (0 Bft) SW 225 0 min -1,5 C -0,4 C 0,0 km/h (0 Bft)
22.03.2021 03:10 0,4 C 5,1 C -0,4 C 0,1 C -0,5 C 0,0 C 87 % 91 % 1020,1 hPa 0,0 l/m 0,0 km/h (0 Bft) SW 225 0 min -1,5 C -0,5 C 0,0 km/h (0 Bft)
22.03.2021 03:15 0,4 C 5,2 C -0,4 C 0,1 C -0,6 C 0,0 C 87 % 91 % 1020,1 hPa 0,0 l/m 0,0 km/h (0 Bft) SW 225 0 min -1,5 C -0,6 C 0,0 km/h (0 Bft)
22.03.2021 03:20 0,4 C 5,1 C -0,5 C 0,0 C -0,7 C 0,0 C 87 % 91 % 1020,1 hPa 0,0 l/m 0,0 km/h (0 Bft) SW 225 0 min -1,5 C -0,7 C 0,0 km/h (0 Bft)
22.03.2021 03:25 0,4 C 5,1 C -0,5 C 0,1 C -0,6 C 0,0 C 87 % 92 % 1020,1 hPa 0,0 l/m 0,0 km/h (0 Bft) SW 225 0 min -1,5 C -0,6 C 0,0 km/h (0 Bft)
22.03.2021 03:30 0,4 C 5,1 C -0,4 C 0,1 C -0,4 C 0,0 C 87 % 92 % 1020,2 hPa 0,0 l/m 0,0 km/h (0 Bft) SW 225 0 min -1,5 C -0,4 C 0,0 km/h (0 Bft)
22.03.2021 03:35 0,4 C 5,0 C -0,2 C 0,2 C -0,3 C 0,0 C 87 % 92 % 1020,2 hPa 0,0 l/m 0,0 km/h (0 Bft) NW 315 0 min -1,5 C -0,3 C 0,0 km/h (0 Bft)
22.03.2021 03:40 0,4 C 5,0 C -0,1 C 0,2 C -0,1 C 0,0 C 87 % 92 % 1020,2 hPa 0,0 l/m 0,0 km/h (0 Bft) NW 315 0 min -1,5 C -0,1 C 0,0 km/h (0 Bft)
22.03.2021 03:45 0,4 C 5,0 C -0,1 C 0,3 C 0,0 C 0,0 C 87 % 92 % 1020,2 hPa 0,0 l/m 0,0 km/h (0 Bft) N-NO 22 0 min -1,5 C 0,0 C 0,0 km/h (0 Bft)
22.03.2021 03:50 0,5 C 5,0 C 0,0 C 0,4 C 0,1 C 0,0 C 87 % 92 % 1020,4 hPa 0,0 l/m 0,0 km/h (0 Bft) N-NO 22 0 min -1,4 C 0,1 C 0,0 km/h (0 Bft)
22.03.2021 03:55 0,5 C 5,0 C 0,0 C 0,4 C 0,1 C 0,0 C 87 % 92 % 1020,4 hPa 0,0 l/m 0,0 km/h (0 Bft) N-NO 22 0 min -1,4 C 0,1 C 0,0 km/h (0 Bft)
22.03.2021 04:00 0,5 C 5,0 C 0,2 C 0,4 C 0,2 C 0,0 C 87 % 92 % 1020,4 hPa 0,0 l/m 0,0 km/h (0 Bft) N-NO 22 0 min -1,4 C 0,2 C 0,0 km/h (0 Bft)
22.03.2021 04:05 0,5 C 5,0 C 0,3 C 0,4 C 0,3 C 0,0 C 87 % 92 % 1020,4 hPa 0,0 l/m 0,0 km/h (0 Bft) N-NO 22 0 min -1,4 C 0,3 C 0,0 km/h (0 Bft)
22.03.2021 04:10 0,7 C 5,0 C 0,3 C 0,6 C 0,4 C 0,0 C 87 % 92 % 1020,2 hPa 0,0 l/m 0,0 km/h (0 Bft) N-NO 22 0 min -1,2 C 0,4 C 0,0 km/h (0 Bft)
22.03.2021 04:15 0,7 C 5,0 C 0,4 C 0,6 C 0,5 C 0,0 C 87 % 92 % 1020,2 hPa 0,0 l/m 0,0 km/h (0 Bft) N-NO 22 0 min -1,2 C 0,5 C 0,0 km/h (0 Bft)
22.03.2021 04:20 0,7 C 5,0 C 0,5 C 0,7 C 0,6 C 0,0 C 87 % 92 % 1020,2 hPa 0,0 l/m 0,2 km/h (0 Bft) SW 225 0 min -1,2 C 0,6 C 2,7 km/h (1 Bft)
22.03.2021 04:25 0,8 C 4,9 C 0,6 C 0,8 C 0,7 C 0,0 C 87 % 92 % 1020,2 hPa 0,0 l/m 0,2 km/h (0 Bft) SW 225 0 min -1,1 C 0,7 C 0,0 km/h (0 Bft)
22.03.2021 04:30 0,8 C 4,9 C 0,7 C 0,9 C 0,9 C 0,1 C 87 % 92 % 1020,5 hPa 0,0 l/m 0,0 km/h (0 Bft) S 180 0 min -1,1 C 0,9 C 1,8 km/h (1 Bft)
22.03.2021 04:35 0,9 C 4,9 C 0,8 C 1,0 C 1,0 C 0,1 C 87 % 91 % 1020,5 hPa 0,0 l/m 0,0 km/h (0 Bft) SO 135 0 min -1,0 C 1,0 C 0,0 km/h (0 Bft)
22.03.2021 04:40 1,1 C 5,0 C 0,8 C 1,1 C 1,1 C 0,0 C 88 % 91 % 1020,5 hPa 0,0 l/m 0,0 km/h (0 Bft) SO 135 0 min -0,7 C 1,1 C 0,0 km/h (0 Bft)
22.03.2021 04:45 1,1 C 5,0 C 0,8 C 1,1 C 1,1 C 0,0 C 88 % 91 % 1020,5 hPa 0,0 l/m 0,0 km/h (0 Bft) SO 135 0 min -0,7 C 1,1 C 0,0 km/h (0 Bft)
22.03.2021 04:50 1,1 C 5,0 C 0,8 C 1,1 C 1,1 C 0,0 C 88 % 91 % 1020,2 hPa 0,0 l/m 0,0 km/h (0 Bft) SO 135 0 min -0,7 C 1,1 C 0,0 km/h (0 Bft)
22.03.2021 04:55 1,1 C 5,0 C 0,9 C 1,1 C 1,1 C 0,0 C 88 % 92 % 1020,2 hPa 0,0 l/m 0,0 km/h (0 Bft) SW 225 0 min -0,7 C 1,1 C 0,0 km/h (0 Bft)
22.03.2021 05:00 1,1 C 4,8 C 1,0 C 1,2 C 1,2 C 0,1 C 88 % 92 % 1020,2 hPa 0,0 l/m 0,3 km/h (0 Bft) W 270 0 min -0,7 C 1,2 C 4,0 km/h (1 Bft)
22.03.2021 05:05 1,1 C 4,8 C 1,1 C 1,2 C 1,2 C 0,1 C 88 % 92 % 1020,2 hPa 0,0 l/m 0,3 km/h (0 Bft) W-SW 247 0 min -0,7 C 1,2 C 0,0 km/h (0 Bft)
22.03.2021 05:10 1,2 C 4,8 C 1,1 C 1,3 C 1,3 C 0,1 C 88 % 92 % 1020,3 hPa 0,0 l/m 0,8 km/h (0 Bft) SO 135 0 min -0,6 C 1,3 C 5,6 km/h (1 Bft)
22.03.2021 05:15 1,3 C 4,8 C 1,1 C 1,4 C 1,4 C 0,1 C 88 % 91 % 1020,3 hPa 0,0 l/m 1,0 km/h (0 Bft) W-SW 247 0 min -0,5 C 1,4 C 0,0 km/h (0 Bft)
22.03.2021 05:20 1,5 C 4,8 C 1,2 C 1,5 C 1,4 C 0,0 C 88 % 91 % 1020,3 hPa 0,0 l/m 0,6 km/h (0 Bft) W 270 0 min -0,3 C 1,4 C 0,0 km/h (0 Bft)
22.03.2021 05:25 1,5 C 4,8 C 1,1 C 1,5 C 1,4 C 0,0 C 88 % 91 % 1020,3 hPa 0,0 l/m 0,5 km/h (0 Bft) SW 225 0 min -0,3 C 1,4 C 0,0 km/h (0 Bft)
22.03.2021 05:30 1,5 C 4,8 C 1,2 C 1,5 C 1,4 C 0,0 C 87 % 91 % 1020,4 hPa 0,0 l/m 0,5 km/h (0 Bft) W-SW 247 0 min -0,4 C 1,4 C 1,9 km/h (1 Bft)
22.03.2021 05:35 1,6 C 4,8 C 1,3 C 1,6 C 1,5 C 0,0 C 87 % 91 % 1020,4 hPa 0,0 l/m 0,3 km/h (0 Bft) SW 225 0 min -0,3 C 1,5 C 0,0 km/h (0 Bft)
22.03.2021 05:40 1,6 C 4,6 C 1,3 C 1,6 C 1,5 C 0,0 C 87 % 91 % 1020,4 hPa 0,0 l/m 0,6 km/h (0 Bft) S-SW 202 0 min -0,3 C 1,5 C 4,8 km/h (1 Bft)
22.03.2021 05:45 1,7 C 4,6 C 1,4 C 1,7 C 1,6 C 0,0 C 87 % 91 % 1020,4 hPa 0,0 l/m 0,8 km/h (0 Bft) W-SW 247 0 min -0,2 C 1,6 C 3,1 km/h (1 Bft)
22.03.2021 05:50 1,8 C 4,6 C 1,4 C 1,7 C 1,6 C 0,0 C 87 % 91 % 1020,6 hPa 0,0 l/m 0,8 km/h (0 Bft) N-NO 22 0 min -0,1 C 1,6 C 0,0 km/h (0 Bft)
22.03.2021 05:55 1,9 C 4,6 C 1,5 C 1,8 C 1,6 C 0,0 C 87 % 90 % 1020,6 hPa 0,0 l/m 0,6 km/h (0 Bft) S-SW 202 0 min -0,0 C 1,6 C 3,2 km/h (1 Bft)
22.03.2021 06:00 1,9 C 4,6 C 1,5 C 1,8 C 1,7 C 0,0 C 87 % 90 % 1020,6 hPa 0,0 l/m 0,5 km/h (0 Bft) W-SW 247 0 min -0,0 C 1,7 C 0,0 km/h (0 Bft)
22.03.2021 06:05 1,9 C 4,6 C 1,5 C 1,8 C 1,7 C 0,0 C 87 % 90 % 1020,6 hPa 0,0 l/m 0,3 km/h (0 Bft) W-SW 247 0 min -0,0 C 1,7 C 0,0 km/h (0 Bft)
22.03.2021 06:10 1,9 C 4,6 C 1,5 C 1,9 C 1,8 C 0,0 C 87 % 90 % 1020,5 hPa 0,0 l/m 0,3 km/h (0 Bft) SW 225 0 min -0,0 C 1,8 C 3,1 km/h (1 Bft)
22.03.2021 06:15 2,0 C 4,6 C 1,5 C 1,9 C 1,8 C 0,0 C 86 % 90 % 1020,5 hPa 0,0 l/m 0,3 km/h (0 Bft) W 270 0 min -0,1 C 1,8 C 0,0 km/h (0 Bft)
22.03.2021 06:20 2,1 C 4,6 C 1,5 C 2,0 C 1,8 C 0,0 C 86 % 90 % 1020,5 hPa 0,0 l/m 0,6 km/h (0 Bft) W-SW 247 0 min 0,0 C 1,8 C 0,0 km/h (0 Bft)
22.03.2021 06:25 2,0 C 4,6 C 1,6 C 1,9 C 1,8 C 0,0 C 86 % 90 % 1020,5 hPa 0,0 l/m 0,6 km/h (0 Bft) S 180 0 min -0,1 C 1,8 C 2,1 km/h (1 Bft)
22.03.2021 06:30 2,0 C 4,6 C 1,7 C 2,0 C 1,9 C 0,0 C 86 % 90 % 1020,9 hPa 0,0 l/m 0,6 km/h (0 Bft) SW 225 0 min -0,1 C 1,9 C 1,8 km/h (1 Bft)
22.03.2021 06:35 2,0 C 4,6 C 1,7 C 2,0 C 2,0 C 0,0 C 86 % 90 % 1020,9 hPa 0,0 l/m 0,6 km/h (0 Bft) W 270 0 min -0,1 C 2,0 C 0,0 km/h (0 Bft)
22.03.2021 06:40 2,1 C 4,6 C 1,7 C 2,1 C 2,0 C 0,0 C 86 % 90 % 1020,9 hPa 0,0 l/m 1,0 km/h (0 Bft) W-SW 247 0 min 0,0 C 2,0 C 6,0 km/h (2 Bft)
22.03.2021 06:45 2,1 C 4,6 C 1,8 C 2,1 C 2,1 C 0,0 C 86 % 90 % 1020,9 hPa 0,0 l/m 0,8 km/h (0 Bft) SW 225 0 min 0,0 C 2,1 C 4,3 km/h (1 Bft)
22.03.2021 06:50 2,1 C 4,6 C 1,8 C 2,1 C 2,1 C 0,0 C 86 % 90 % 1020,9 hPa 0,0 l/m 0,8 km/h (0 Bft) SW 225 0 min 0,0 C 2,1 C 0,0 km/h (0 Bft)
22.03.2021 06:55 2,3 C 4,6 C 1,9 C 2,3 C 2,2 C 0,0 C 86 % 89 % 1020,9 hPa 0,0 l/m 1,6 km/h (1 Bft) W-SW 247 0 min 0,2 C 2,2 C 6,1 km/h (2 Bft)
22.03.2021 07:00 2,2 C 4,6 C 1,9 C 2,3 C 2,3 C 0,1 C 86 % 89 % 1020,9 hPa 0,0 l/m 1,1 km/h (1 Bft) W-SW 247 0 min 0,1 C 2,3 C 3,1 km/h (1 Bft)
22.03.2021 07:05 2,3 C 4,6 C 1,9 C 2,3 C 2,3 C 0,0 C 86 % 89 % 1020,9 hPa 0,0 l/m 0,6 km/h (0 Bft) SW 225 0 min 0,2 C 2,3 C 2,6 km/h (1 Bft)
22.03.2021 07:10 2,3 C 4,6 C 2,0 C 2,3 C 2,3 C 0,0 C 85 % 89 % 1020,9 hPa 0,0 l/m 1,0 km/h (0 Bft) S 180 0 min 0,0 C 2,3 C 5,0 km/h (1 Bft)
22.03.2021 07:15 2,3 C 4,6 C 2,1 C 2,4 C 2,4 C 0,1 C 85 % 89 % 1020,9 hPa 0,0 l/m 1,0 km/h (0 Bft) W 270 0 min 0,0 C 2,4 C 3,4 km/h (1 Bft)
22.03.2021 07:20 2,4 C 4,6 C 2,2 C 2,5 C 2,5 C 0,1 C 85 % 89 % 1020,9 hPa 0,0 l/m 1,1 km/h (1 Bft) SW 225 0 min 0,1 C 2,5 C 2,1 km/h (1 Bft)
22.03.2021 07:25 2,4 C 4,6 C 2,2 C 2,6 C 2,6 C 0,2 C 85 % 89 % 1020,9 hPa 0,0 l/m 1,6 km/h (1 Bft) NW 315 0 min 0,1 C 2,6 C 2,9 km/h (1 Bft)
22.03.2021 07:30 2,4 C 4,6 C 2,3 C 2,7 C 2,7 C 0,3 C 85 % 89 % 1020,9 hPa 0,0 l/m 2,7 km/h (1 Bft) S 180 0 min 0,1 C 2,7 C 8,4 km/h (2 Bft)
22.03.2021 07:35 2,4 C 4,6 C 2,3 C 2,8 C 2,8 C 0,4 C 85 % 89 % 1020,9 hPa 0,0 l/m 2,7 km/h (1 Bft) NW 315 0 min 0,1 C 2,8 C 5,6 km/h (1 Bft)
22.03.2021 07:40 2,4 C 4,6 C 2,4 C 2,9 C 2,9 C 0,5 C 85 % 89 % 1020,9 hPa 0,0 l/m 2,3 km/h (1 Bft) W-SW 247 0 min 0,1 C 2,9 C 10,3 km/h (2 Bft)
22.03.2021 07:45 2,5 C 4,6 C 2,5 C 3,0 C 3,0 C 0,5 C 85 % 88 % 1020,9 hPa 0,0 l/m 2,1 km/h (1 Bft) SW 225 0 min 0,2 C 3,0 C 4,8 km/h (1 Bft)
22.03.2021 07:50 2,5 C 4,6 C 2,6 C 3,2 C 3,2 C 0,7 C 85 % 88 % 1020,9 hPa 0,0 l/m 2,3 km/h (1 Bft) S 180 0 min 0,2 C 3,2 C 3,7 km/h (1 Bft)
22.03.2021 07:55 2,7 C 4,6 C 2,6 C 3,3 C 3,3 C 0,6 C 85 % 88 % 1020,9 hPa 0,0 l/m 1,4 km/h (1 Bft) SW 225 0 min 0,4 C 3,3 C 2,6 km/h (1 Bft)
22.03.2021 08:00 2,6 C 4,6 C 2,7 C 3,4 C 3,4 C 0,8 C 85 % 88 % 1020,9 hPa 0,0 l/m 1,4 km/h (1 Bft) SW 225 0 min 0,3 C 3,4 C 5,8 km/h (2 Bft)
22.03.2021 08:05 2,7 C 4,6 C 2,7 C 3,4 C 3,4 C 0,7 C 84 % 87 % 1020,9 hPa 0,0 l/m 1,6 km/h (1 Bft) SW 225 0 min 0,3 C 3,4 C 3,7 km/h (1 Bft)
22.03.2021 08:10 2,7 C 4,6 C 2,8 C 3,4 C 3,4 C 0,7 C 84 % 87 % 1021,4 hPa 0,0 l/m 2,4 km/h (1 Bft) W-SW 247 0 min 0,3 C 3,4 C 5,0 km/h (1 Bft)
22.03.2021 08:15 2,7 C 4,6 C 2,9 C 3,5 C 3,5 C 0,8 C 84 % 87 % 1021,4 hPa 0,0 l/m 2,4 km/h (1 Bft) W 270 0 min 0,3 C 3,5 C 4,8 km/h (1 Bft)
22.03.2021 08:20 2,8 C 4,6 C 2,9 C 3,6 C 3,6 C 0,8 C 84 % 87 % 1021,4 hPa 0,0 l/m 2,1 km/h (1 Bft) W 270 0 min 0,4 C 3,6 C 5,0 km/h (1 Bft)
22.03.2021 08:25 2,8 C 4,6 C 3,0 C 3,7 C 3,7 C 0,9 C 84 % 87 % 1021,4 hPa 0,0 l/m 1,8 km/h (1 Bft) NW 315 0 min 0,4 C 3,7 C 0,0 km/h (0 Bft)
22.03.2021 08:30 2,9 C 4,6 C 3,1 C 3,8 C 3,8 C 0,9 C 84 % 87 % 1021,3 hPa 0,0 l/m 2,4 km/h (1 Bft) S 180 0 min 0,5 C 3,8 C 2,7 km/h (1 Bft)
22.03.2021 08:35 2,8 C 4,6 C 3,2 C 3,8 C 3,8 C 1,0 C 84 % 87 % 1021,3 hPa 0,0 l/m 2,9 km/h (1 Bft) S 180 0 min 0,4 C 3,8 C 5,5 km/h (1 Bft)
22.03.2021 08:40 2,9 C 4,6 C 3,3 C 4,0 C 4,0 C 1,1 C 84 % 87 % 1021,3 hPa 0,0 l/m 2,1 km/h (1 Bft) W-SW 247 0 min 0,5 C 4,0 C 0,0 km/h (0 Bft)
22.03.2021 08:45 2,9 C 4,6 C 3,3 C 4,1 C 4,1 C 1,2 C 84 % 86 % 1021,3 hPa 0,0 l/m 1,3 km/h (1 Bft) W-SW 247 0 min 0,5 C 4,1 C 0,0 km/h (0 Bft)
22.03.2021 08:50 3,1 C 4,6 C 3,4 C 4,2 C 4,2 C 1,1 C 84 % 86 % 1021,7 hPa 0,0 l/m 2,4 km/h (1 Bft) SW 225 0 min 0,7 C 4,2 C 2,1 km/h (1 Bft)
22.03.2021 08:55 3,1 C 4,6 C 3,4 C 4,2 C 4,2 C 1,1 C 84 % 86 % 1021,7 hPa 0,0 l/m 2,9 km/h (1 Bft) W 270 0 min 0,7 C 4,2 C 0,0 km/h (0 Bft)
22.03.2021 09:00 3,1 C 4,6 C 3,4 C 4,3 C 4,3 C 1,2 C 84 % 86 % 1021,7 hPa 0,0 l/m 1,6 km/h (1 Bft) SW 225 0 min 0,7 C 4,3 C 0,0 km/h (0 Bft)
22.03.2021 09:05 3,1 C 4,6 C 3,4 C 4,4 C 4,4 C 1,3 C 84 % 86 % 1021,7 hPa 0,0 l/m 1,0 km/h (0 Bft) NW 315 0 min 0,7 C 4,4 C 4,0 km/h (1 Bft)
22.03.2021 09:10 3,1 C 4,6 C 3,3 C 4,1 C 4,1 C 1,0 C 84 % 86 % 1021,8 hPa 0,0 l/m 1,4 km/h (1 Bft) SW 225 0 min 0,7 C 4,1 C 3,7 km/h (1 Bft)
22.03.2021 09:15 3,0 C 4,6 C 3,2 C 4,0 C 4,0 C 1,0 C 84 % 86 % 1021,8 hPa 0,0 l/m 1,6 km/h (1 Bft) N-NW 337 0 min 0,6 C 4,0 C 0,0 km/h (0 Bft)
22.03.2021 09:20 3,1 C 4,6 C 3,1 C 3,6 C 3,6 C 0,5 C 84 % 86 % 1021,8 hPa 0,0 l/m 1,1 km/h (1 Bft) S-SO 157 0 min 0,7 C 3,6 C 1,8 km/h (1 Bft)
22.03.2021 09:25 3,0 C 4,6 C 3,1 C 3,5 C 3,5 C 0,5 C 84 % 86 % 1021,8 hPa 0,0 l/m 0,6 km/h (0 Bft) SW 225 0 min 0,6 C 3,5 C 0,0 km/h (0 Bft)
22.03.2021 09:30 3,0 C 4,6 C 3,0 C 3,3 C 3,3 C 0,3 C 84 % 86 % 1022,2 hPa 0,0 l/m 0,6 km/h (0 Bft) S-SO 157 0 min 0,6 C 3,3 C 0,0 km/h (0 Bft)
22.03.2021 09:35 2,9 C 4,6 C 3,0 C 3,1 C 3,1 C 0,2 C 84 % 87 % 1022,2 hPa 0,0 l/m 0,6 km/h (0 Bft) W-SW 247 0 min 0,5 C 3,1 C 2,3 km/h (1 Bft)
22.03.2021 09:40 2,9 C 4,6 C 3,1 C 3,2 C 3,2 C 0,3 C 84 % 87 % 1022,2 hPa 0,0 l/m 1,0 km/h (0 Bft) SW 225 0 min 0,5 C 3,2 C 3,9 km/h (1 Bft)
22.03.2021 09:45 2,9 C 4,6 C 3,2 C 3,4 C 3,4 C 0,5 C 84 % 87 % 1022,2 hPa 0,0 l/m 1,1 km/h (1 Bft) SW 225 0 min 0,5 C 3,4 C 3,5 km/h (1 Bft)
22.03.2021 09:50 3,1 C 4,7 C 3,6 C 3,8 C 3,8 C 0,7 C 85 % 87 % 1022,2 hPa 0,0 l/m 1,4 km/h (1 Bft) W-SW 247 0 min 0,8 C 3,8 C 0,0 km/h (0 Bft)
22.03.2021 09:55 3,1 C 4,6 C 3,8 C 4,3 C 4,3 C 1,2 C 85 % 87 % 1022,2 hPa 0,0 l/m 1,3 km/h (1 Bft) S 180 0 min 0,8 C 4,3 C 3,7 km/h (1 Bft)
22.03.2021 10:00 3,2 C 4,6 C 3,9 C 4,8 C 4,8 C 1,6 C 85 % 87 % 1022,2 hPa 0,0 l/m 0,8 km/h (0 Bft) SW 225 0 min 0,9 C 4,8 C 0,0 km/h (0 Bft)
22.03.2021 10:05 3,3 C 4,6 C 3,9 C 4,9 C 4,9 C 1,6 C 85 % 86 % 1022,2 hPa 0,0 l/m 1,0 km/h (0 Bft) SW 225 0 min 1,0 C 4,9 C 1,6 km/h (1 Bft)
22.03.2021 10:10 3,2 C 4,6 C 3,7 C 4,7 C 4,7 C 1,5 C 85 % 86 % 1022,4 hPa 0,0 l/m 1,6 km/h (1 Bft) SO 135 0 min 0,9 C 4,7 C 0,0 km/h (0 Bft)
22.03.2021 10:15 3,2 C 4,6 C 3,6 C 4,5 C 4,5 C 1,3 C 85 % 86 % 1022,4 hPa 0,0 l/m 1,6 km/h (1 Bft) SW 225 0 min 0,9 C 4,5 C 3,7 km/h (1 Bft)
22.03.2021 10:20 3,2 C 4,6 C 3,6 C 4,4 C 4,4 C 1,2 C 84 % 86 % 1022,4 hPa 0,0 l/m 1,4 km/h (1 Bft) NW 315 0 min 0,8 C 4,4 C 1,9 km/h (1 Bft)
22.03.2021 10:25 3,2 C 4,6 C 3,6 C 4,4 C 4,4 C 1,2 C 84 % 86 % 1022,4 hPa 0,0 l/m 1,4 km/h (1 Bft) O-NO 67 0 min 0,8 C 4,4 C 0,0 km/h (0 Bft)
22.03.2021 10:30 3,3 C 4,6 C 3,7 C 4,4 C 4,4 C 1,1 C 84 % 86 % 1022,6 hPa 0,0 l/m 0,8 km/h (0 Bft) S-SW 202 0 min 0,9 C 4,4 C 0,0 km/h (0 Bft)
22.03.2021 10:35 3,5 C 4,6 C 3,8 C 4,5 C 4,5 C 1,0 C 84 % 86 % 1022,6 hPa 0,0 l/m 0,8 km/h (0 Bft) SW 225 0 min 1,1 C 4,5 C 2,9 km/h (1 Bft)
22.03.2021 10:40 3,5 C 4,6 C 3,9 C 4,8 C 4,8 C 1,3 C 84 % 86 % 1022,6 hPa 0,0 l/m 0,6 km/h (0 Bft) W-NW 292 0 min 1,1 C 4,8 C 1,8 km/h (1 Bft)
22.03.2021 10:45 3,6 C 4,6 C 4,1 C 5,0 C 5,0 C 1,4 C 84 % 85 % 1022,6 hPa 0,0 l/m 0,8 km/h (0 Bft) W 270 0 min 1,2 C 5,0 C 7,6 km/h (2 Bft)
22.03.2021 10:50 3,6 C 4,6 C 4,1 C 5,2 C 5,2 C 1,6 C 84 % 85 % 1022,8 hPa 0,0 l/m 1,1 km/h (1 Bft) W-SW 247 0 min 1,2 C 5,2 C 4,5 km/h (1 Bft)
22.03.2021 10:55 3,6 C 4,6 C 4,2 C 5,3 C 5,3 C 1,7 C 84 % 86 % 1022,8 hPa 0,0 l/m 1,1 km/h (1 Bft) NW 315 0 min 1,2 C 5,3 C 0,0 km/h (0 Bft)
22.03.2021 11:00 3,7 C 4,6 C 4,3 C 5,4 C 5,4 C 1,7 C 84 % 85 % 1022,8 hPa 0,0 l/m 2,1 km/h (1 Bft) SO 135 0 min 1,3 C 5,4 C 1,6 km/h (1 Bft)
22.03.2021 11:05 3,7 C 4,6 C 4,5 C 5,8 C 5,8 C 2,1 C 84 % 85 % 1022,8 hPa 0,0 l/m 2,1 km/h (1 Bft) SW 225 0 min 1,3 C 5,8 C 6,8 km/h (2 Bft)
22.03.2021 11:10 3,9 C 4,6 C 4,9 C 6,1 C 6,1 C 2,2 C 84 % 85 % 1022,8 hPa 0,0 l/m 2,6 km/h (1 Bft) W 270 0 min 1,4 C 6,1 C 1,6 km/h (1 Bft)
22.03.2021 11:15 4,0 C 4,6 C 5,1 C 6,5 C 6,5 C 2,5 C 84 % 84 % 1022,8 hPa 0,0 l/m 2,3 km/h (1 Bft) S 180 0 min 1,5 C 6,5 C 1,9 km/h (1 Bft)
22.03.2021 11:20 4,1 C 4,6 C 5,0 C 6,7 C 6,7 C 2,6 C 83 % 84 % 1022,8 hPa 0,0 l/m 1,3 km/h (1 Bft) S-SW 202 0 min 1,5 C 6,7 C 3,9 km/h (1 Bft)
22.03.2021 11:25 4,1 C 4,6 C 5,1 C 6,5 C 6,5 C 2,4 C 83 % 84 % 1022,8 hPa 0,0 l/m 2,3 km/h (1 Bft) SO 135 0 min 1,5 C 6,5 C 5,1 km/h (1 Bft)
22.03.2021 11:30 4,3 C 4,6 C 5,3 C 6,6 C 6,6 C 2,3 C 83 % 83 % 1022,8 hPa 0,0 l/m 3,2 km/h (1 Bft) N 360 0 min 1,7 C 6,6 C 7,1 km/h (2 Bft)
22.03.2021 11:35 4,3 C 4,6 C 5,4 C 6,7 C 6,7 C 2,4 C 83 % 82 % 1022,8 hPa 0,0 l/m 3,5 km/h (1 Bft) NW 315 0 min 1,7 C 6,7 C 7,2 km/h (2 Bft)
22.03.2021 11:40 4,4 C 4,6 C 5,6 C 7,1 C 7,1 C 2,7 C 83 % 82 % 1022,8 hPa 0,0 l/m 1,6 km/h (1 Bft) N-NW 337 0 min 1,8 C 7,1 C 10,6 km/h (2 Bft)
22.03.2021 11:45 4,7 C 4,6 C 5,8 C 7,4 C 7,4 C 2,7 C 82 % 82 % 1022,8 hPa 0,0 l/m 0,5 km/h (0 Bft) SW 225 0 min 1,9 C 7,4 C 0,0 km/h (0 Bft)
22.03.2021 11:50 4,7 C 4,6 C 5,9 C 7,6 C 7,6 C 2,9 C 82 % 81 % 1022,9 hPa 0,0 l/m 0,8 km/h (0 Bft) SW 225 0 min 1,9 C 7,6 C 2,1 km/h (1 Bft)
22.03.2021 11:55 4,9 C 4,6 C 6,0 C 7,7 C 7,7 C 2,8 C 81 % 81 % 1022,9 hPa 0,0 l/m 1,3 km/h (1 Bft) SW 225 0 min 1,9 C 7,7 C 8,4 km/h (2 Bft)
22.03.2021 12:00 4,9 C 4,6 C 5,9 C 7,6 C 7,6 C 2,7 C 81 % 80 % 1022,9 hPa 0,0 l/m 3,7 km/h (1 Bft) S 180 0 min 1,9 C 7,6 C 5,8 km/h (2 Bft)
22.03.2021 12:05 4,8 C 4,6 C 6,0 C 6,9 C 6,9 C 2,1 C 80 % 80 % 1022,9 hPa 0,0 l/m 4,7 km/h (1 Bft) S 180 0 min 1,6 C 6,3 C 4,8 km/h (1 Bft)
22.03.2021 12:10 4,8 C 4,6 C 6,0 C 6,9 C 6,9 C 2,1 C 80 % 80 % 1022,3 hPa 0,0 l/m 4,7 km/h (1 Bft) S 180 0 min 1,6 C 6,3 C 4,8 km/h (1 Bft)
22.03.2021 12:15 4,8 C 4,6 C 6,0 C 7,6 C 7,6 C 2,8 C 80 % 80 % 1022,3 hPa 0,0 l/m 3,7 km/h (1 Bft) W-NW 292 0 min 1,6 C 7,6 C 0,0 km/h (0 Bft)
22.03.2021 12:20 5,0 C 4,6 C 6,3 C 7,7 C 7,7 C 2,7 C 80 % 79 % 1022,3 hPa 0,0 l/m 3,1 km/h (1 Bft) N-NO 22 0 min 1,8 C 7,7 C 3,5 km/h (1 Bft)
22.03.2021 12:25 5,2 C 4,6 C 6,5 C 7,8 C 7,8 C 2,6 C 80 % 79 % 1022,3 hPa 0,0 l/m 1,9 km/h (1 Bft) SW 225 0 min 2,0 C 7,8 C 5,3 km/h (1 Bft)
22.03.2021 12:30 5,3 C 4,5 C 6,9 C 8,5 C 8,5 C 3,2 C 79 % 78 % 1022,8 hPa 0,0 l/m 2,1 km/h (1 Bft) NW 315 0 min 2,0 C 8,5 C 4,3 km/h (1 Bft)
22.03.2021 12:35 5,5 C 4,5 C 7,0 C 8,7 C 8,7 C 3,2 C 79 % 77 % 1022,8 hPa 0,0 l/m 2,4 km/h (1 Bft) NW 315 0 min 2,2 C 8,7 C 0,0 km/h (0 Bft)
22.03.2021 12:40 5,5 C 4,5 C 7,2 C 8,9 C 8,9 C 3,4 C 78 % 76 % 1022,8 hPa 0,0 l/m 3,5 km/h (1 Bft) SW 225 5 min 2,0 C 8,9 C 4,5 km/h (1 Bft)
22.03.2021 12:45 5,6 C 4,7 C 7,4 C 9,1 C 9,1 C 3,5 C 78 % 76 % 1022,8 hPa 0,0 l/m 3,5 km/h (1 Bft) NW 315 5 min 2,1 C 9,1 C 0,0 km/h (0 Bft)
22.03.2021 12:50 5,9 C 4,7 C 7,5 C 9,7 C 9,7 C 3,8 C 78 % 75 % 1022,6 hPa 0,0 l/m 2,1 km/h (1 Bft) S 180 5 min 2,4 C 9,7 C 3,9 km/h (1 Bft)
22.03.2021 12:55 5,9 C 4,7 C 7,5 C 9,6 C 9,6 C 3,7 C 77 % 75 % 1022,6 hPa 0,0 l/m 2,1 km/h (1 Bft) SW 225 5 min 2,2 C 9,6 C 4,3 km/h (1 Bft)
22.03.2021 13:00 5,9 C 4,7 C 7,5 C 9,4 C 9,4 C 3,5 C 76 % 75 % 1022,6 hPa 0,0 l/m 3,2 km/h (1 Bft) SW 225 5 min 2,0 C 9,4 C 4,5 km/h (1 Bft)
22.03.2021 13:05 5,9 C 4,7 C 7,4 C 9,3 C 9,3 C 3,4 C 76 % 74 % 1022,6 hPa 0,0 l/m 2,9 km/h (1 Bft) S 180 5 min 2,0 C 9,3 C 6,1 km/h (2 Bft)
22.03.2021 13:10 5,9 C 4,7 C 7,2 C 8,9 C 8,9 C 3,0 C 75 % 73 % 1022,6 hPa 0,0 l/m 3,4 km/h (1 Bft) SW 225 0 min 1,8 C 8,9 C 5,0 km/h (1 Bft)
22.03.2021 13:15 5,9 C 4,7 C 7,2 C 8,7 C 8,7 C 2,8 C 75 % 74 % 1022,6 hPa 0,0 l/m 4,0 km/h (1 Bft) SW 225 0 min 1,8 C 8,7 C 2,6 km/h (1 Bft)
22.03.2021 13:20 6,0 C 4,7 C 7,5 C 9,0 C 9,0 C 3,0 C 76 % 74 % 1022,6 hPa 0,0 l/m 2,7 km/h (1 Bft) W-SW 247 0 min 2,1 C 9,0 C 4,8 km/h (1 Bft)
22.03.2021 13:25 6,1 C 4,7 C 7,5 C 9,2 C 9,2 C 3,1 C 75 % 74 % 1022,6 hPa 0,0 l/m 2,4 km/h (1 Bft) N-NW 337 0 min 2,0 C 9,2 C 3,4 km/h (1 Bft)
22.03.2021 13:30 6,3 C 4,7 C 7,6 C 9,4 C 9,4 C 3,1 C 75 % 73 % 1022,6 hPa 0,0 l/m 2,3 km/h (1 Bft) SW 225 0 min 2,2 C 9,4 C 3,1 km/h (1 Bft)
22.03.2021 13:35 6,3 C 4,7 C 7,5 C 9,5 C 9,5 C 3,2 C 75 % 73 % 1022,6 hPa 0,0 l/m 2,3 km/h (1 Bft) W-SW 247 0 min 2,2 C 9,5 C 4,2 km/h (1 Bft)
22.03.2021 13:40 6,3 C 4,7 C 7,3 C 9,1 C 9,1 C 2,8 C 74 % 73 % 1022,6 hPa 0,0 l/m 3,4 km/h (1 Bft) SW 225 0 min 2,0 C 9,1 C 2,6 km/h (1 Bft)
22.03.2021 13:45 6,3 C 4,7 C 7,4 C 9,2 C 9,2 C 2,9 C 74 % 73 % 1022,6 hPa 0,0 l/m 3,2 km/h (1 Bft) SW 225 0 min 2,0 C 9,2 C 2,3 km/h (1 Bft)
22.03.2021 13:50 6,4 C 4,7 C 7,6 C 9,4 C 9,4 C 3,0 C 74 % 72 % 1022,5 hPa 0,0 l/m 1,4 km/h (1 Bft) W-SW 247 0 min 2,1 C 9,4 C 5,3 km/h (1 Bft)
22.03.2021 13:55 6,4 C 4,6 C 7,6 C 9,6 C 9,6 C 3,2 C 72 % 72 % 1022,5 hPa 0,0 l/m 1,8 km/h (1 Bft) W-SW 247 0 min 1,7 C 9,6 C 3,4 km/h (1 Bft)
22.03.2021 14:00 6,7 C 4,6 C 7,5 C 9,9 C 9,9 C 3,2 C 72 % 72 % 1022,5 hPa 0,0 l/m 1,8 km/h (1 Bft) SW 225 0 min 2,0 C 9,9 C 12,1 km/h (2 Bft)
22.03.2021 14:05 6,4 C 4,6 C 7,3 C 9,2 C 9,2 C 2,8 C 72 % 71 % 1022,5 hPa 0,0 l/m 2,6 km/h (1 Bft) S-SW 202 0 min 1,7 C 9,2 C 4,2 km/h (1 Bft)
22.03.2021 14:10 6,5 C 4,7 C 7,6 C 9,6 C 9,6 C 3,1 C 73 % 73 % 1022,8 hPa 0,0 l/m 4,5 km/h (1 Bft) N 360 0 min 2,0 C 9,6 C 15,0 km/h (3 Bft)
22.03.2021 14:15 6,8 C 4,6 C 8,1 C 11,6 C 11,6 C 4,8 C 73 % 73 % 1022,8 hPa 0,0 l/m 4,0 km/h (1 Bft) W-SW 247 5 min 2,3 C 11,6 C 4,8 km/h (1 Bft)
22.03.2021 14:20 7,2 C 4,8 C 8,4 C 13,3 C 13,3 C 6,1 C 72 % 71 % 1022,8 hPa 0,0 l/m 3,2 km/h (1 Bft) SW 225 5 min 2,5 C 13,3 C 4,7 km/h (1 Bft)
22.03.2021 14:25 7,3 C 4,7 C 8,5 C 12,8 C 12,8 C 5,5 C 72 % 72 % 1022,8 hPa 0,0 l/m 3,2 km/h (1 Bft) SW 225 5 min 2,6 C 12,8 C 6,6 km/h (2 Bft)
22.03.2021 14:30 7,7 C 4,7 C 8,9 C 13,7 C 13,7 C 6,0 C 72 % 70 % 1022,6 hPa 0,0 l/m 2,4 km/h (1 Bft) SO 135 5 min 3,0 C 13,7 C 2,1 km/h (1 Bft)
22.03.2021 14:35 8,0 C 4,7 C 9,0 C 14,4 C 14,4 C 6,4 C 71 % 70 % 1022,6 hPa 0,0 l/m 2,4 km/h (1 Bft) W-SW 247 5 min 3,1 C 14,4 C 6,1 km/h (2 Bft)
22.03.2021 14:40 7,6 C 4,7 C 8,5 C 12,9 C 12,9 C 5,3 C 69 % 69 % 1022,6 hPa 0,0 l/m 3,4 km/h (1 Bft) S 180 5 min 2,3 C 12,9 C 1,6 km/h (1 Bft)
22.03.2021 14:45 7,5 C 4,7 C 8,3 C 11,8 C 11,8 C 4,3 C 69 % 69 % 1022,6 hPa 0,0 l/m 3,7 km/h (1 Bft) W 270 5 min 2,2 C 11,8 C 5,0 km/h (1 Bft)
22.03.2021 14:50 7,3 C 4,7 C 8,2 C 10,5 C 10,5 C 3,2 C 69 % 69 % 1022,8 hPa 0,0 l/m 2,3 km/h (1 Bft) SW 225 0 min 2,0 C 10,5 C 4,7 km/h (1 Bft)
22.03.2021 14:55 7,1 C 4,7 C 8,0 C 9,9 C 9,9 C 2,8 C 70 % 69 % 1022,8 hPa 0,0 l/m 2,9 km/h (1 Bft) SW 225 0 min 2,0 C 9,9 C 5,5 km/h (1 Bft)
22.03.2021 15:00 6,9 C 4,7 C 7,7 C 8,4 C 8,4 C 1,5 C 69 % 69 % 1022,8 hPa 0,0 l/m 5,3 km/h (1 Bft) S 180 0 min 1,6 C 7,8 C 10,1 km/h (2 Bft)
22.03.2021 15:05 6,7 C 4,7 C 7,4 C 7,6 C 7,6 C 0,9 C 69 % 69 % 1022,8 hPa 0,0 l/m 6,1 km/h (2 Bft) SW 225 0 min 1,4 C 6,7 C 4,0 km/h (1 Bft)
22.03.2021 15:10 6,7 C 4,7 C 7,4 C 7,6 C 7,6 C 0,9 C 70 % 69 % 1022,5 hPa 0,0 l/m 5,5 km/h (1 Bft) SW 225 0 min 1,6 C 6,9 C 4,8 km/h (1 Bft)
22.03.2021 15:15 6,8 C 4,7 C 7,6 C 8,5 C 8,5 C 1,7 C 70 % 70 % 1022,5 hPa 0,0 l/m 4,3 km/h (1 Bft) S-SW 202 0 min 1,7 C 8,5 C 6,3 km/h (2 Bft)
22.03.2021 15:20 7,5 C 4,9 C 8,4 C 11,3 C 11,3 C 3,8 C 69 % 70 % 1022,5 hPa 0,0 l/m 4,3 km/h (1 Bft) SW 225 5 min 2,2 C 11,3 C 7,4 km/h (2 Bft)
22.03.2021 15:25 7,6 C 4,9 C 8,5 C 12,2 C 12,2 C 4,6 C 68 % 69 % 1022,5 hPa 0,0 l/m 5,3 km/h (1 Bft) S 180 5 min 2,1 C 12,2 C 6,4 km/h (2 Bft)
22.03.2021 15:30 7,7 C 4,9 C 8,8 C 13,1 C 13,1 C 5,4 C 68 % 68 % 1022,5 hPa 0,0 l/m 5,1 km/h (1 Bft) SW 225 5 min 2,2 C 13,1 C 6,9 km/h (2 Bft)
22.03.2021 15:35 8,0 C 4,9 C 9,0 C 13,8 C 13,8 C 5,8 C 68 % 68 % 1022,5 hPa 0,0 l/m 4,0 km/h (1 Bft) SW 225 5 min 2,5 C 13,8 C 0,0 km/h (0 Bft)
22.03.2021 15:40 8,3 C 4,9 C 9,2 C 14,6 C 14,6 C 6,3 C 66 % 66 % 1022,5 hPa 0,0 l/m 2,1 km/h (1 Bft) SW 225 5 min 2,3 C 14,6 C 7,6 km/h (2 Bft)
22.03.2021 15:45 8,3 C 4,9 C 8,9 C 13,9 C 13,9 C 5,6 C 65 % 65 % 1022,5 hPa 0,0 l/m 2,7 km/h (1 Bft) S 180 5 min 2,1 C 13,9 C 10,5 km/h (2 Bft)
22.03.2021 15:50 7,9 C 4,9 C 8,3 C 11,5 C 11,5 C 3,6 C 65 % 66 % 1022,6 hPa 0,0 l/m 3,9 km/h (1 Bft) SW 225 5 min 1,7 C 11,5 C 4,8 km/h (1 Bft)
22.03.2021 15:55 7,6 C 4,9 C 8,1 C 10,3 C 10,3 C 2,7 C 65 % 66 % 1022,6 hPa 0,0 l/m 4,0 km/h (1 Bft) SW 225 0 min 1,5 C 10,3 C 4,8 km/h (1 Bft)
22.03.2021 16:00 7,4 C 4,9 C 7,8 C 9,2 C 9,2 C 1,8 C 65 % 66 % 1022,6 hPa 0,0 l/m 4,0 km/h (1 Bft) S-SW 202 0 min 1,3 C 9,2 C 7,9 km/h (2 Bft)
22.03.2021 16:05 7,4 C 4,9 C 7,5 C 8,4 C 8,4 C 1,0 C 65 % 66 % 1022,6 hPa 0,0 l/m 4,7 km/h (1 Bft) W-NW 292 0 min 1,3 C 8,0 C 6,3 km/h (2 Bft)
22.03.2021 16:10 7,1 C 4,9 C 7,2 C 7,4 C 7,4 C 0,3 C 65 % 66 % 1022,4 hPa 0,0 l/m 5,1 km/h (1 Bft) S-SW 202 0 min 1,0 C 6,8 C 4,0 km/h (1 Bft)
22.03.2021 16:15 6,9 C 4,9 C 7,1 C 7,1 C 7,1 C 0,2 C 65 % 67 % 1022,4 hPa 0,0 l/m 5,3 km/h (1 Bft) SW 225 0 min 0,8 C 6,4 C 7,9 km/h (2 Bft)
22.03.2021 16:20 6,9 C 4,9 C 7,0 C 6,9 C 6,8 C 0,0 C 65 % 67 % 1022,4 hPa 0,0 l/m 5,6 km/h (1 Bft) S-SW 202 0 min 0,8 C 5,9 C 5,3 km/h (1 Bft)
22.03.2021 16:25 6,8 C 4,9 C 7,0 C 6,8 C 6,7 C 0,0 C 65 % 68 % 1022,4 hPa 0,0 l/m 5,8 km/h (2 Bft) W-SW 247 0 min 0,7 C 5,7 C 6,9 km/h (2 Bft)
22.03.2021 16:30 6,8 C 5,0 C 7,0 C 7,0 C 7,0 C 0,2 C 65 % 68 % 1022,9 hPa 0,0 l/m 5,1 km/h (1 Bft) SW 225 0 min 0,7 C 6,3 C 3,7 km/h (1 Bft)
22.03.2021 16:35 6,8 C 5,0 C 7,0 C 7,4 C 7,4 C 0,6 C 66 % 68 % 1022,9 hPa 0,0 l/m 4,3 km/h (1 Bft) W-SW 247 0 min 0,9 C 7,4 C 3,4 km/h (1 Bft)
22.03.2021 16:40 7,0 C 5,0 C 7,1 C 8,1 C 8,1 C 1,1 C 66 % 68 % 1022,9 hPa 0,0 l/m 3,2 km/h (1 Bft) S-SW 202 0 min 1,1 C 8,1 C 8,2 km/h (2 Bft)
22.03.2021 16:45 7,1 C 5,0 C 7,1 C 8,2 C 8,2 C 1,1 C 66 % 68 % 1022,9 hPa 0,0 l/m 2,6 km/h (1 Bft) SW 225 0 min 1,2 C 8,2 C 4,2 km/h (1 Bft)
22.03.2021 16:50 7,1 C 5,0 C 6,9 C 8,2 C 8,2 C 1,1 C 66 % 68 % 1022,4 hPa 0,0 l/m 2,9 km/h (1 Bft) S-SW 202 0 min 1,2 C 8,2 C 7,2 km/h (2 Bft)
22.03.2021 16:55 7,1 C 5,0 C 6,7 C 8,1 C 8,1 C 1,0 C 65 % 68 % 1022,4 hPa 0,0 l/m 2,3 km/h (1 Bft) SW 225 0 min 1,0 C 8,1 C 0,0 km/h (0 Bft)
22.03.2021 17:00 6,9 C 5,0 C 6,7 C 7,9 C 7,9 C 1,0 C 65 % 68 % 1022,4 hPa 0,0 l/m 3,1 km/h (1 Bft) N-NO 22 0 min 0,8 C 7,9 C 4,2 km/h (1 Bft)
22.03.2021 17:05 6,9 C 5,0 C 6,6 C 7,7 C 7,7 C 0,8 C 65 % 68 % 1022,4 hPa 0,0 l/m 2,7 km/h (1 Bft) S-SW 202 0 min 0,8 C 7,7 C 4,5 km/h (1 Bft)
22.03.2021 17:10 6,8 C 5,0 C 6,6 C 7,5 C 7,5 C 0,7 C 66 % 69 % 1022,8 hPa 0,0 l/m 2,7 km/h (1 Bft) S 180 0 min 0,9 C 7,5 C 6,3 km/h (2 Bft)
22.03.2021 17:15 6,8 C 5,0 C 6,5 C 7,4 C 7,4 C 0,6 C 65 % 69 % 1022,8 hPa 0,0 l/m 2,9 km/h (1 Bft) W-SW 247 0 min 0,7 C 7,4 C 0,0 km/h (0 Bft)
22.03.2021 17:20 6,8 C 5,0 C 6,6 C 7,5 C 7,5 C 0,7 C 66 % 69 % 1022,8 hPa 0,0 l/m 2,4 km/h (1 Bft) W-SW 247 0 min 0,9 C 7,5 C 0,0 km/h (0 Bft)
22.03.2021 17:25 6,9 C 5,1 C 6,6 C 7,8 C 7,8 C 0,9 C 66 % 70 % 1022,8 hPa 0,0 l/m 1,6 km/h (1 Bft) SW 225 0 min 1,0 C 7,8 C 3,1 km/h (1 Bft)
22.03.2021 17:30 7,1 C 5,1 C 6,5 C 7,9 C 7,9 C 0,8 C 66 % 70 % 1022,8 hPa 0,0 l/m 1,3 km/h (1 Bft) SW 225 0 min 1,2 C 7,9 C 0,0 km/h (0 Bft)
22.03.2021 17:35 7,0 C 5,1 C 6,3 C 7,7 C 7,7 C 0,7 C 66 % 70 % 1022,8 hPa 0,0 l/m 1,4 km/h (1 Bft) SW 225 0 min 1,1 C 7,7 C 0,0 km/h (0 Bft)
22.03.2021 17:40 6,9 C 5,1 C 6,3 C 7,4 C 7,4 C 0,5 C 66 % 70 % 1022,8 hPa 0,0 l/m 1,1 km/h (1 Bft) W-SW 247 0 min 1,0 C 7,4 C 2,4 km/h (1 Bft)
22.03.2021 17:45 6,8 C 5,1 C 6,1 C 7,2 C 7,2 C 0,4 C 66 % 70 % 1022,8 hPa 0,0 l/m 1,0 km/h (0 Bft) SW 225 0 min 0,9 C 7,2 C 0,0 km/h (0 Bft)
22.03.2021 17:50 6,9 C 5,1 C 6,0 C 7,0 C 7,0 C 0,1 C 67 % 71 % 1022,8 hPa 0,0 l/m 0,8 km/h (0 Bft) S 180 0 min 1,2 C 7,0 C 1,6 km/h (1 Bft)
22.03.2021 17:55 6,8 C 5,1 C 5,9 C 6,9 C 6,9 C 0,1 C 67 % 72 % 1022,8 hPa 0,0 l/m 0,2 km/h (0 Bft) S 180 0 min 1,1 C 6,9 C 0,0 km/h (0 Bft)
22.03.2021 18:00 6,7 C 5,1 C 5,8 C 6,7 C 6,7 C 0,0 C 67 % 72 % 1022,8 hPa 0,0 l/m 0,0 km/h (0 Bft) S 180 0 min 1,0 C 6,7 C 0,0 km/h (0 Bft)
22.03.2021 18:05 6,7 C 5,1 C 5,7 C 6,7 C 6,6 C 0,0 C 67 % 72 % 1022,8 hPa 0,0 l/m 0,0 km/h (0 Bft) W-SW 247 0 min 1,0 C 6,6 C 0,0 km/h (0 Bft)
22.03.2021 18:10 6,6 C 5,1 C 5,7 C 6,6 C 6,5 C 0,0 C 67 % 72 % 1022,9 hPa 0,0 l/m 0,0 km/h (0 Bft) S-SW 202 0 min 0,9 C 6,5 C 0,0 km/h (0 Bft)
22.03.2021 18:15 6,5 C 5,1 C 5,6 C 6,5 C 6,4 C 0,0 C 67 % 73 % 1022,9 hPa 0,0 l/m 0,0 km/h (0 Bft) S 180 0 min 0,8 C 6,4 C 0,0 km/h (0 Bft)
22.03.2021 18:20 6,5 C 5,1 C 5,5 C 6,4 C 6,3 C 0,0 C 67 % 72 % 1022,9 hPa 0,0 l/m 0,0 km/h (0 Bft) W-SW 247 0 min 0,8 C 6,3 C 0,0 km/h (0 Bft)
22.03.2021 18:25 6,4 C 5,1 C 5,5 C 6,4 C 6,3 C 0,0 C 67 % 73 % 1022,9 hPa 0,0 l/m 0,0 km/h (0 Bft) S-SW 202 0 min 0,7 C 6,3 C 0,0 km/h (0 Bft)
22.03.2021 18:30 6,4 C 5,1 C 5,4 C 6,3 C 6,1 C 0,0 C 67 % 72 % 1023,2 hPa 0,0 l/m 0,2 km/h (0 Bft) SW 225 0 min 0,7 C 6,1 C 2,7 km/h (1 Bft)
22.03.2021 18:35 6,3 C 5,1 C 5,3 C 6,2 C 6,0 C 0,0 C 67 % 73 % 1023,2 hPa 0,0 l/m 0,2 km/h (0 Bft) W 270 0 min 0,6 C 6,0 C 0,0 km/h (0 Bft)
22.03.2021 18:40 6,3 C 5,1 C 5,2 C 6,2 C 5,9 C 0,0 C 67 % 73 % 1023,2 hPa 0,0 l/m 0,3 km/h (0 Bft) W 270 0 min 0,6 C 5,9 C 0,0 km/h (0 Bft)
22.03.2021 18:45 6,2 C 5,1 C 5,1 C 6,1 C 5,8 C 0,0 C 67 % 73 % 1023,2 hPa 0,0 l/m 0,3 km/h (0 Bft) S 180 0 min 0,5 C 5,8 C 0,0 km/h (0 Bft)
22.03.2021 18:50 6,0 C 5,1 C 5,0 C 5,9 C 5,6 C 0,0 C 67 % 73 % 1023,9 hPa 0,0 l/m 0,0 km/h (0 Bft) SW 225 0 min 0,3 C 5,6 C 0,0 km/h (0 Bft)
22.03.2021 18:55 6,1 C 5,1 C 4,9 C 5,9 C 5,4 C 0,0 C 67 % 73 % 1023,9 hPa 0,0 l/m 0,0 km/h (0 Bft) S-SW 202 0 min 0,4 C 5,4 C 0,0 km/h (0 Bft)
22.03.2021 19:00 5,9 C 5,1 C 4,7 C 5,7 C 5,2 C 0,0 C 68 % 73 % 1023,9 hPa 0,0 l/m 0,2 km/h (0 Bft) S-SW 202 0 min 0,5 C 5,2 C 0,0 km/h (0 Bft)
22.03.2021 19:05 5,9 C 5,1 C 4,6 C 5,7 C 5,2 C 0,0 C 68 % 74 % 1023,9 hPa 0,0 l/m 0,2 km/h (0 Bft) S-SW 202 0 min 0,5 C 5,2 C 0,0 km/h (0 Bft)
22.03.2021 19:10 5,7 C 5,1 C 4,5 C 5,4 C 4,8 C 0,0 C 68 % 74 % 1023,5 hPa 0,0 l/m 0,0 km/h (0 Bft) S-SW 202 0 min 0,3 C 4,8 C 0,0 km/h (0 Bft)
22.03.2021 19:15 5,6 C 5,2 C 4,3 C 5,3 C 4,6 C 0,0 C 68 % 74 % 1023,5 hPa 0,0 l/m 0,0 km/h (0 Bft) S-SW 202 0 min 0,2 C 4,6 C 0,0 km/h (0 Bft)
22.03.2021 19:20 5,5 C 5,2 C 4,0 C 5,1 C 4,3 C 0,0 C 68 % 75 % 1023,5 hPa 0,0 l/m 0,0 km/h (0 Bft) S-SW 202 0 min 0,1 C 4,3 C 0,0 km/h (0 Bft)
22.03.2021 19:25 5,3 C 5,3 C 3,9 C 4,9 C 4,2 C 0,0 C 68 % 76 % 1023,5 hPa 0,0 l/m 0,0 km/h (0 Bft) S-SW 202 0 min -0,1 C 4,2 C 0,0 km/h (0 Bft)
22.03.2021 19:30 5,1 C 5,3 C 3,7 C 4,7 C 3,8 C 0,0 C 68 % 75 % 1023,8 hPa 0,0 l/m 0,0 km/h (0 Bft) S-SW 202 0 min -0,3 C 3,8 C 0,0 km/h (0 Bft)
22.03.2021 19:35 4,9 C 5,3 C 3,5 C 4,4 C 3,4 C 0,0 C 68 % 76 % 1023,8 hPa 0,0 l/m 0,0 km/h (0 Bft) S-SW 202 0 min -0,5 C 3,4 C 0,0 km/h (0 Bft)
22.03.2021 19:40 4,6 C 5,3 C 3,2 C 4,1 C 3,0 C 0,0 C 68 % 77 % 1023,8 hPa 0,0 l/m 0,0 km/h (0 Bft) S-SW 202 0 min -0,8 C 3,0 C 0,0 km/h (0 Bft)
22.03.2021 19:45 4,4 C 5,3 C 2,9 C 3,8 C 2,7 C 0,0 C 68 % 77 % 1023,8 hPa 0,0 l/m 0,0 km/h (0 Bft) S-SW 202 0 min -1,0 C 2,7 C 0,0 km/h (0 Bft)
22.03.2021 19:50 4,2 C 5,3 C 2,7 C 3,5 C 2,2 C 0,0 C 68 % 78 % 1023,8 hPa 0,0 l/m 0,0 km/h (0 Bft) S-SW 202 0 min -1,2 C 2,2 C 0,0 km/h (0 Bft)
22.03.2021 19:55 4,0 C 5,3 C 2,6 C 3,3 C 1,9 C 0,0 C 69 % 78 % 1023,8 hPa 0,0 l/m 0,0 km/h (0 Bft) S-SW 202 0 min -1,2 C 1,9 C 0,0 km/h (0 Bft)
22.03.2021 20:00 3,7 C 5,3 C 2,3 C 3,0 C 1,6 C 0,0 C 69 % 79 % 1023,8 hPa 0,0 l/m 0,0 km/h (0 Bft) S-SW 202 0 min -1,4 C 1,6 C 0,0 km/h (0 Bft)
22.03.2021 20:05 3,5 C 5,3 C 2,1 C 2,8 C 1,3 C 0,0 C 69 % 79 % 1023,8 hPa 0,0 l/m 0,0 km/h (0 Bft) S-SW 202 0 min -1,6 C 1,3 C 0,0 km/h (0 Bft)
22.03.2021 20:10 3,3 C 5,3 C 1,8 C 2,6 C 1,2 C 0,0 C 71 % 80 % 1024,6 hPa 0,0 l/m 0,0 km/h (0 Bft) SW 225 0 min -1,4 C 1,2 C 0,0 km/h (0 Bft)
22.03.2021 20:15 3,2 C 5,3 C 1,8 C 2,5 C 1,2 C 0,0 C 71 % 81 % 1024,6 hPa 0,0 l/m 0,0 km/h (0 Bft) SW 225 0 min -1,5 C 1,2 C 0,0 km/h (0 Bft)
22.03.2021 20:20 3,2 C 5,3 C 1,6 C 2,5 C 1,2 C 0,0 C 72 % 81 % 1024,6 hPa 0,0 l/m 0,0 km/h (0 Bft) SW 225 0 min -1,3 C 1,2 C 0,0 km/h (0 Bft)
22.03.2021 20:25 3,0 C 5,3 C 1,5 C 2,4 C 1,2 C 0,0 C 73 % 81 % 1024,6 hPa 0,0 l/m 0,0 km/h (0 Bft) NW 315 0 min -1,4 C 1,2 C 0,0 km/h (0 Bft)
22.03.2021 20:30 2,9 C 5,4 C 1,4 C 2,3 C 1,1 C 0,0 C 74 % 82 % 1024,7 hPa 0,0 l/m 0,0 km/h (0 Bft) S-SW 202 0 min -1,3 C 1,1 C 0,0 km/h (0 Bft)
22.03.2021 20:35 2,8 C 5,4 C 1,3 C 2,1 C 0,8 C 0,0 C 75 % 82 % 1024,7 hPa 0,0 l/m 0,0 km/h (0 Bft) S-SW 202 0 min -1,2 C 0,8 C 0,0 km/h (0 Bft)
22.03.2021 20:40 2,5 C 5,4 C 1,1 C 1,8 C 0,4 C 0,0 C 75 % 83 % 1024,7 hPa 0,0 l/m 0,0 km/h (0 Bft) S-SW 202 0 min -1,5 C 0,4 C 0,0 km/h (0 Bft)
22.03.2021 20:45 2,5 C 5,3 C 1,0 C 1,7 C 0,1 C 0,0 C 75 % 83 % 1024,7 hPa 0,0 l/m 0,0 km/h (0 Bft) S-SW 202 0 min -1,5 C 0,1 C 0,0 km/h (0 Bft)
22.03.2021 20:50 2,3 C 5,4 C 1,0 C 1,6 C 0,1 C 0,0 C 75 % 83 % 1024,8 hPa 0,0 l/m 0,0 km/h (0 Bft) S-SW 202 0 min -1,7 C 0,1 C 0,0 km/h (0 Bft)
22.03.2021 20:55 2,1 C 5,4 C 0,8 C 1,4 C 0,0 C 0,0 C 76 % 83 % 1024,8 hPa 0,0 l/m 0,0 km/h (0 Bft) S-SW 202 0 min -1,7 C 0,0 C 0,0 km/h (0 Bft)
22.03.2021 21:00 1,9 C 5,4 C 0,8 C 1,2 C -0,1 C 0,0 C 76 % 84 % 1024,8 hPa 0,0 l/m 0,0 km/h (0 Bft) S-SW 202 0 min -1,9 C -0,1 C 0,0 km/h (0 Bft)
22.03.2021 21:05 1,9 C 5,4 C 0,7 C 1,2 C -0,2 C 0,0 C 76 % 84 % 1024,8 hPa 0,0 l/m 0,0 km/h (0 Bft) S-SW 202 0 min -1,9 C -0,2 C 0,0 km/h (0 Bft)
22.03.2021 21:10 1,6 C 5,4 C 0,6 C 1,0 C -0,2 C 0,0 C 76 % 85 % 1024,8 hPa 0,0 l/m 0,0 km/h (0 Bft) S-SW 202 0 min -2,2 C -0,2 C 0,0 km/h (0 Bft)
22.03.2021 21:15 1,6 C 5,5 C 0,6 C 0,9 C -0,4 C 0,0 C 77 % 85 % 1024,8 hPa 0,0 l/m 0,0 km/h (0 Bft) S-SW 202 0 min -2,0 C -0,4 C 0,0 km/h (0 Bft)
22.03.2021 21:20 1,4 C 5,5 C 0,3 C 0,7 C -0,7 C 0,0 C 77 % 85 % 1024,8 hPa 0,0 l/m 0,0 km/h (0 Bft) S-SW 202 0 min -2,2 C -0,7 C 0,0 km/h (0 Bft)
22.03.2021 21:25 1,3 C 5,5 C 0,3 C 0,6 C -0,8 C 0,0 C 77 % 85 % 1024,8 hPa 0,0 l/m 0,0 km/h (0 Bft) S-SW 202 0 min -2,3 C -0,8 C 0,0 km/h (0 Bft)
22.03.2021 21:30 1,1 C 5,5 C 0,1 C 0,4 C -1,1 C 0,0 C 77 % 85 % 1024,9 hPa 0,0 l/m 0,0 km/h (0 Bft) S-SW 202 0 min -2,5 C -1,1 C 0,0 km/h (0 Bft)
22.03.2021 21:35 1,1 C 5,5 C 0,0 C 0,3 C -1,2 C 0,0 C 77 % 86 % 1024,9 hPa 0,0 l/m 0,0 km/h (0 Bft) S-SW 202 0 min -2,5 C -1,2 C 0,0 km/h (0 Bft)
22.03.2021 21:40 0,8 C 5,5 C -0,1 C 0,1 C -1,4 C 0,0 C 77 % 86 % 1024,9 hPa 0,0 l/m 0,0 km/h (0 Bft) S-SW 202 0 min -2,8 C -1,4 C 0,0 km/h (0 Bft)
22.03.2021 21:45 0,7 C 5,5 C -0,1 C 0,0 C -1,5 C 0,0 C 77 % 86 % 1024,9 hPa 0,0 l/m 0,0 km/h (0 Bft) S-SW 202 0 min -2,9 C -1,5 C 0,0 km/h (0 Bft)
22.03.2021 21:50 0,7 C 5,5 C -0,3 C -0,1 C -1,6 C 0,0 C 78 % 86 % 1025,1 hPa 0,0 l/m 0,0 km/h (0 Bft) S-SW 202 0 min -2,7 C -1,6 C 0,0 km/h (0 Bft)
22.03.2021 21:55 0,5 C 5,5 C -0,3 C -0,2 C -1,7 C 0,0 C 78 % 86 % 1025,1 hPa 0,0 l/m 0,0 km/h (0 Bft) S-SW 202 0 min -2,9 C -1,7 C 0,0 km/h (0 Bft)
22.03.2021 22:00 0,5 C 5,5 C -0,4 C -0,2 C -1,7 C 0,0 C 79 % 86 % 1025,1 hPa 0,0 l/m 0,0 km/h (0 Bft) S-SW 202 0 min -2,7 C -1,7 C 0,0 km/h (0 Bft)
22.03.2021 22:05 0,4 C 5,5 C -0,4 C -0,3 C -1,8 C 0,0 C 79 % 86 % 1025,1 hPa 0,0 l/m 0,0 km/h (0 Bft) S-SW 202 0 min -2,8 C -1,8 C 0,0 km/h (0 Bft)
22.03.2021 22:10 0,3 C 5,5 C -0,5 C -0,4 C -1,9 C 0,0 C 79 % 87 % 1025,1 hPa 0,0 l/m 0,0 km/h (0 Bft) S-SW 202 0 min -2,9 C -1,9 C 0,0 km/h (0 Bft)
22.03.2021 22:15 0,1 C 5,5 C -0,5 C -0,5 C -1,8 C 0,0 C 79 % 87 % 1025,1 hPa 0,0 l/m 0,0 km/h (0 Bft) S-SW 202 0 min -3,1 C -1,8 C 0,0 km/h (0 Bft)
22.03.2021 22:20 0,0 C 5,5 C -0,6 C -0,5 C -1,6 C 0,0 C 80 % 87 % 1025,1 hPa 0,0 l/m 0,0 km/h (0 Bft) S-SW 202 0 min -3,0 C -1,6 C 0,0 km/h (0 Bft)
22.03.2021 22:25 0,0 C 5,5 C -0,7 C -0,5 C -1,5 C 0,0 C 80 % 87 % 1025,1 hPa 0,0 l/m 0,0 km/h (0 Bft) S-SW 202 0 min -3,0 C -1,5 C 0,0 km/h (0 Bft)
22.03.2021 22:30 0,0 C 5,5 C -0,8 C -0,5 C -1,4 C 0,0 C 81 % 87 % 1025,0 hPa 0,0 l/m 0,0 km/h (0 Bft) S-SW 202 0 min -2,9 C -1,4 C 0,0 km/h (0 Bft)
22.03.2021 22:35 -0,1 C 5,5 C -0,7 C -0,5 C -1,4 C 0,0 C 80 % 88 % 1025,0 hPa 0,0 l/m 0,0 km/h (0 Bft) S-SW 202 0 min -3,1 C -1,4 C 0,0 km/h (0 Bft)
22.03.2021 22:40 -0,1 C 5,5 C -0,6 C -0,5 C -1,3 C 0,0 C 81 % 88 % 1025,0 hPa 0,0 l/m 0,0 km/h (0 Bft) S-SW 202 0 min -3,0 C -1,3 C 0,0 km/h (0 Bft)
22.03.2021 22:45 -0,1 C 5,5 C -0,5 C -0,4 C -1,1 C 0,0 C 81 % 88 % 1025,0 hPa 0,0 l/m 0,0 km/h (0 Bft) S-SW 202 0 min -3,0 C -1,1 C 0,0 km/h (0 Bft)
22.03.2021 22:50 -0,1 C 5,5 C -0,4 C -0,4 C -1,0 C 0,0 C 82 % 89 % 1025,1 hPa 0,0 l/m 0,0 km/h (0 Bft) S-SW 202 0 min -2,8 C -1,0 C 0,0 km/h (0 Bft)
22.03.2021 22:55 -0,1 C 5,5 C -0,4 C -0,4 C -1,0 C 0,0 C 82 % 89 % 1025,1 hPa 0,0 l/m 0,0 km/h (0 Bft) S-SW 202 0 min -2,8 C -1,0 C 0,0 km/h (0 Bft)
22.03.2021 23:00 -0,1 C 5,5 C -0,3 C -0,4 C -0,9 C 0,0 C 82 % 89 % 1025,1 hPa 0,0 l/m 0,0 km/h (0 Bft) S-SW 202 0 min -2,8 C -0,9 C 0,0 km/h (0 Bft)
22.03.2021 23:05 -0,1 C 5,5 C -0,2 C -0,4 C -0,9 C 0,0 C 82 % 89 % 1025,1 hPa 0,0 l/m 0,0 km/h (0 Bft) S-SW 202 0 min -2,8 C -0,9 C 0,0 km/h (0 Bft)
22.03.2021 23:10 0,1 C 5,5 C -0,1 C -0,2 C -0,7 C 0,0 C 83 % 89 % 1025,1 hPa 0,0 l/m 0,0 km/h (0 Bft) S-SW 202 0 min -2,4 C -0,7 C 0,0 km/h (0 Bft)
22.03.2021 23:15 0,0 C 5,5 C 0,1 C -0,1 C -0,4 C 0,0 C 83 % 89 % 1025,1 hPa 0,0 l/m 0,0 km/h (0 Bft) S-SW 202 0 min -2,5 C -0,4 C 0,0 km/h (0 Bft)
22.03.2021 23:20 0,1 C 5,4 C 0,2 C 0,0 C -0,1 C 0,0 C 83 % 89 % 1025,1 hPa 0,0 l/m 0,0 km/h (0 Bft) S-SW 202 0 min -2,4 C -0,1 C 0,0 km/h (0 Bft)
22.03.2021 23:25 0,3 C 5,4 C 0,3 C 0,2 C 0,1 C 0,0 C 83 % 89 % 1025,1 hPa 0,0 l/m 0,0 km/h (0 Bft) S-SW 202 0 min -2,2 C 0,1 C 0,0 km/h (0 Bft)
22.03.2021 23:30 0,3 C 5,4 C 0,4 C 0,3 C 0,3 C 0,0 C 84 % 89 % 1025,0 hPa 0,0 l/m 0,0 km/h (0 Bft) S-SW 202 0 min -2,1 C 0,3 C 0,0 km/h (0 Bft)
22.03.2021 23:35 0,4 C 5,4 C 0,6 C 0,6 C 0,6 C 0,2 C 84 % 89 % 1025,0 hPa 0,0 l/m 0,0 km/h (0 Bft) S-SW 202 0 min -2,0 C 0,6 C 0,0 km/h (0 Bft)
22.03.2021 23:40 0,7 C 5,3 C 0,9 C 1,1 C 1,1 C 0,4 C 85 % 89 % 1025,0 hPa 0,0 l/m 0,0 km/h (0 Bft) S-SW 202 0 min -1,5 C 1,1 C 0,0 km/h (0 Bft)
22.03.2021 23:45 1,1 C 5,2 C 1,1 C 1,4 C 1,4 C 0,3 C 85 % 89 % 1025,0 hPa 0,0 l/m 0,0 km/h (0 Bft) S-SW 202 0 min -1,1 C 1,4 C 0,0 km/h (0 Bft)
22.03.2021 23:50 1,5 C 5,2 C 1,3 C 1,8 C 1,8 C 0,3 C 85 % 89 % 1025,2 hPa 0,0 l/m 0,0 km/h (0 Bft) W-SW 247 0 min -0,7 C 1,8 C 0,0 km/h (0 Bft)
22.03.2021 23:55 1,6 C 5,2 C 1,5 C 1,9 C 1,9 C 0,3 C 85 % 88 % 1025,2 hPa 0,0 l/m 0,0 km/h (0 Bft) W-SW 247 0 min -0,6 C 1,9 C 1,6 km/h (1 Bft)
_ Min-Zeit 22:35 12:30 02:05 22:15 22:10 00:00 15:45 15:45 00:10 - 00:10 - - - 22:35 22:10 00:00
Minimum _ -0,1 C 4,5 C -1,1 C -0,5 C -1,9 C 0,0 C 65 % 65 % 1019,9 hPa - 0,0 km/h (0 Bft) - - - -3,1 C -1,9 C 0,0 km/h (0 Bft)
_ Max-Zeit 15:40 21:15 15:40 15:40 15:40 14:35 04:40 03:00 23:50 00:00 15:05 - - 12:40 14:35 15:40 14:10
Maximum _ 8,3 C 5,5 C 9,2 C 14,6 C 14,6 C 6,4 C 88 % 92 % 1025,2 hPa 0,0 l/m 6,1 km/h
SW (2 Bft)
- - 5 min 3,1 C 14,6 C 15,0 km/h
N (3 Bft)
Durchschnitt _ 3,3 C 4,9 C 3,1 C 4,0 C 3,6 C 0,9 C 79 % 83 % 1022,3 hPa #0,0 l/m 1,2 km/h (1 Bft) SW - #1:40 h -0,1 C 3,6 C 2,0 km/h (1 Bft)
2021 www.wetterstation-wechselburg.de